Madison, Wisconsin
Current Conditions -  °F | °C
As of 5:05 AM on Friday 31 Oct 2014 (Local Time) from KMSN Reporting Station
Light Snow Light Snow  
Wind Chill: 24°   Ceiling: 2600
Heat Index: 32°   Visibility: 2mi
Dew Point: 29°   Wind: 10mph
Humidity: 88%   Direction: 320°NW
Pressure: 30.16"   Gusts: 23mph
Location:  43.07°N, 89.39°W
Report Text: KMSN 311005Z AUTO 32009G20KT 2SM -SN BR SCT015 OVC026 00/M02 A3016 RMK AO2 P0000 T00001017
Loading
Personal Weather Stations






























Interactive Weather Map New forecast layout! Learn more

10-Day Weather Forecast

Advertisements
Track Severe Weather on mobile